createdAt,value
2018-01-25T00:02:26.367Z,9.50
2018-01-25T00:04:53.062Z,9.50
2018-01-25T00:07:19.656Z,9.50
2018-01-25T00:09:46.300Z,9.40
2018-01-25T00:12:12.981Z,9.50
2018-01-25T00:14:44.612Z,9.40
2018-01-25T00:17:11.644Z,9.40
2018-01-25T00:19:38.251Z,9.30
2018-01-25T00:22:08.012Z,9.30
2018-01-25T00:24:45.451Z,9.30
2018-01-25T00:27:12.132Z,9.30
2018-01-25T00:29:38.738Z,9.30
2018-01-25T00:32:05.405Z,9.30
2018-01-25T00:34:32.007Z,9.30
2018-01-25T00:36:58.684Z,9.20
2018-01-25T00:39:25.678Z,9.20
2018-01-25T00:41:52.354Z,9.20
2018-01-25T00:44:18.934Z,9.20
2018-01-25T00:46:45.944Z,9.10
2018-01-25T00:49:12.582Z,9.10
2018-01-25T00:51:39.243Z,9.00
2018-01-25T00:54:06.314Z,9.00
2018-01-25T00:56:32.940Z,9.00
2018-01-25T00:58:59.949Z,9.10
2018-01-25T01:01:26.591Z,9.00
2018-01-25T01:03:53.216Z,9.10
2018-01-25T01:06:19.798Z,9.10
2018-01-25T01:08:46.894Z,9.10
2018-01-25T01:11:13.494Z,9.10
2018-01-25T01:13:44.172Z,9.00
2018-01-25T01:16:11.084Z,9.00
2018-01-25T01:18:41.732Z,9.00
2018-01-25T01:21:08.350Z,9.00
2018-01-25T01:23:35.418Z,9.00
2018-01-25T01:26:02.067Z,8.90
2018-01-25T01:28:28.680Z,8.90
2018-01-25T01:30:55.317Z,8.90
2018-01-25T01:33:21.899Z,8.90
2018-01-25T01:35:48.503Z,8.90
2018-01-25T01:38:15.165Z,8.80
2018-01-25T01:40:41.818Z,8.80
2018-01-25T01:43:08.413Z,8.80
2018-01-25T01:45:35.119Z,8.80
2018-01-25T01:48:02.113Z,8.70
2018-01-25T01:50:28.987Z,8.70
2018-01-25T01:52:55.674Z,8.70
2018-01-25T01:55:22.266Z,8.70
2018-01-25T01:57:48.862Z,8.80
2018-01-25T02:00:15.514Z,8.80
2018-01-25T02:02:42.124Z,8.70
2018-01-25T02:05:32.132Z,8.70
2018-01-25T02:07:58.782Z,8.70
2018-01-25T02:10:25.461Z,8.70
2018-01-25T02:12:52.258Z,8.60
2018-01-25T02:15:40.059Z,8.60
2018-01-25T02:18:06.767Z,8.70
2018-01-25T02:20:34.105Z,8.70
2018-01-25T02:23:00.695Z,8.70
2018-01-25T02:25:27.349Z,8.60
2018-01-25T02:27:54.049Z,8.50
2018-01-25T02:30:21.049Z,8.60
2018-01-25T02:32:47.669Z,8.60
2018-01-25T02:35:14.289Z,8.60
2018-01-25T02:37:40.900Z,8.60
2018-01-25T02:40:07.981Z,8.50
2018-01-25T02:42:34.582Z,8.50
2018-01-25T02:45:01.632Z,8.50
2018-01-25T02:47:28.682Z,8.60
2018-01-25T02:49:55.661Z,8.50
2018-01-25T02:52:22.230Z,8.50
2018-01-25T02:54:49.107Z,8.50
2018-01-25T02:57:16.129Z,8.50
2018-01-25T02:59:42.866Z,8.50
2018-01-25T03:02:09.524Z,8.50
2018-01-25T03:04:36.202Z,8.50
2018-01-25T03:09:35.706Z,8.40
2018-01-25T03:12:02.343Z,8.40
2018-01-25T03:14:29.502Z,8.40
2018-01-25T03:16:56.102Z,8.40
2018-01-25T03:19:22.733Z,8.40
2018-01-25T03:21:49.441Z,8.40
2018-01-25T03:24:16.039Z,8.30
2018-01-25T03:26:43.063Z,8.30
2018-01-25T03:29:09.993Z,8.30
2018-01-25T03:31:36.595Z,8.30
2018-01-25T03:34:03.195Z,8.30
2018-01-25T03:36:30.271Z,8.20
2018-01-25T03:38:56.845Z,8.20
2018-01-25T03:41:23.423Z,8.20
2018-01-25T03:43:50.804Z,8.20
2018-01-25T03:46:17.458Z,8.20
2018-01-25T03:51:36.506Z,8.20
2018-01-25T03:54:03.475Z,8.20
2018-01-25T03:56:30.107Z,8.10
2018-01-25T03:58:56.745Z,8.10
2018-01-25T04:01:23.352Z,8.10
2018-01-25T04:03:49.958Z,8.10
2018-01-25T04:06:16.909Z,8.10
2018-01-25T04:08:43.544Z,8.10
2018-01-25T04:11:10.207Z,8.10
2018-01-25T04:13:38.667Z,8.10
2018-01-25T04:16:05.255Z,8.10
2018-01-25T04:18:32.794Z,8.10
2018-01-25T04:21:00.162Z,8.00
2018-01-25T04:23:27.142Z,8.00
2018-01-25T04:25:53.777Z,8.00
2018-01-25T04:28:40.383Z,8.00
2018-01-25T04:31:06.976Z,8.00
2018-01-25T04:33:33.957Z,7.90
2018-01-25T04:36:05.694Z,8.00
2018-01-25T04:38:32.669Z,8.00
2018-01-25T04:40:59.303Z,8.00
2018-01-25T04:43:25.977Z,7.90
2018-01-25T04:45:52.634Z,7.90
2018-01-25T04:48:19.220Z,7.90
2018-01-25T04:50:45.899Z,8.00
2018-01-25T04:53:12.507Z,7.90
2018-01-25T04:55:39.126Z,7.90
2018-01-25T04:58:05.707Z,7.90
2018-01-25T05:00:32.333Z,7.90
2018-01-25T05:02:59.042Z,7.90
2018-01-25T05:05:25.648Z,7.90
2018-01-25T05:07:52.622Z,7.90
2018-01-25T05:10:19.245Z,7.80
2018-01-25T05:12:45.810Z,7.80
2018-01-25T05:15:12.431Z,7.90
2018-01-25T05:17:41.574Z,7.90
2018-01-25T05:20:08.247Z,7.90
2018-01-25T05:22:35.253Z,7.80
2018-01-25T05:25:01.931Z,7.80
2018-01-25T05:27:28.604Z,7.80
2018-01-25T05:29:55.217Z,7.70
2018-01-25T05:32:22.303Z,7.80
2018-01-25T05:34:48.887Z,7.80
2018-01-25T05:37:15.881Z,7.80
2018-01-25T05:39:42.505Z,7.80
2018-01-25T05:42:09.106Z,7.80
2018-01-25T05:44:36.391Z,7.80
2018-01-25T05:47:02.999Z,7.70
2018-01-25T05:49:29.948Z,7.70
2018-01-25T05:51:57.067Z,7.70
2018-01-25T05:54:23.670Z,7.70
2018-01-25T05:56:50.260Z,7.70
2018-01-25T05:59:29.381Z,7.70
2018-01-25T06:01:55.995Z,7.80
2018-01-25T06:04:22.608Z,7.90
2018-01-25T06:06:49.283Z,7.90
2018-01-25T06:09:15.908Z,7.90
2018-01-25T06:11:42.580Z,7.90
2018-01-25T06:14:09.225Z,7.80
2018-01-25T06:16:36.248Z,7.80
2018-01-25T06:19:02.823Z,7.70
2018-01-25T06:21:29.514Z,7.70
2018-01-25T06:23:56.128Z,7.60
2018-01-25T06:26:28.405Z,7.70
2018-01-25T06:28:55.079Z,7.70
2018-01-25T06:31:21.680Z,7.60
2018-01-25T06:33:48.260Z,7.70
2018-01-25T06:36:15.247Z,7.70
2018-01-25T06:38:41.879Z,7.60
2018-01-25T06:41:08.507Z,7.60
2018-01-25T06:43:54.340Z,7.60
2018-01-25T06:46:20.985Z,7.60
2018-01-25T06:48:47.622Z,7.50
2018-01-25T06:54:06.419Z,7.40
2018-01-25T06:56:33.035Z,7.40
2018-01-25T06:58:59.621Z,7.40
2018-01-25T07:01:46.099Z,7.30
2018-01-25T07:04:12.728Z,7.30
2018-01-25T07:06:39.345Z,7.30
2018-01-25T07:09:05.973Z,7.40
2018-01-25T07:11:32.674Z,7.40
2018-01-25T07:14:00.006Z,7.40
2018-01-25T07:16:26.656Z,7.40
2018-01-25T07:19:01.050Z,7.30
2018-01-25T07:21:27.728Z,7.30
2018-01-25T07:23:54.314Z,7.30
2018-01-25T07:26:20.928Z,7.30
2018-01-25T07:28:47.638Z,7.30
2018-01-25T07:31:14.234Z,7.30
2018-01-25T07:33:41.210Z,7.30
2018-01-25T07:36:08.886Z,7.40
2018-01-25T07:38:35.889Z,7.40
2018-01-25T07:41:02.526Z,7.30
2018-01-25T07:43:29.148Z,7.40
2018-01-25T07:45:55.767Z,7.40
2018-01-25T07:48:22.442Z,7.40
2018-01-25T07:50:49.007Z,7.30
2018-01-25T07:53:15.635Z,7.40
2018-01-25T07:55:42.273Z,7.40
2018-01-25T07:58:24.146Z,7.40
2018-01-25T08:00:50.812Z,7.40
2018-01-25T08:03:17.421Z,7.50
2018-01-25T08:05:44.087Z,7.50
2018-01-25T08:08:10.699Z,7.50
2018-01-25T08:10:37.339Z,7.60
2018-01-25T08:13:09.803Z,7.60
2018-01-25T08:15:36.406Z,7.60
2018-01-25T08:18:03.005Z,7.60
2018-01-25T08:20:29.655Z,7.60
2018-01-25T08:22:56.215Z,7.60
2018-01-25T08:28:25.100Z,7.70
2018-01-25T08:30:51.712Z,7.60
2018-01-25T08:33:18.385Z,7.70
2018-01-25T08:35:45.387Z,7.70
2018-01-25T08:38:11.943Z,7.70
2018-01-25T08:40:38.589Z,7.80
2018-01-25T08:43:05.331Z,7.80
2018-01-25T08:45:31.895Z,7.80
2018-01-25T08:47:58.897Z,7.80
2018-01-25T08:50:25.536Z,7.80
2018-01-25T08:52:52.162Z,7.80
2018-01-25T08:55:18.851Z,7.80
2018-01-25T08:57:45.935Z,7.90
2018-01-25T09:00:12.617Z,7.90
2018-01-25T09:02:39.255Z,7.90
2018-01-25T09:05:05.904Z,7.90
2018-01-25T09:07:32.528Z,7.90
2018-01-25T09:09:59.159Z,7.90
2018-01-25T09:12:25.866Z,8.00
2018-01-25T09:14:52.567Z,8.00
2018-01-25T09:17:19.563Z,8.00
2018-01-25T09:19:46.186Z,8.00
2018-01-25T09:22:12.887Z,8.10
2018-01-25T09:24:39.918Z,8.10
2018-01-25T09:27:06.556Z,8.10
2018-01-25T09:29:33.268Z,8.20
2018-01-25T09:31:59.911Z,8.20
2018-01-25T09:34:26.487Z,8.20
2018-01-25T09:36:53.221Z,8.20
2018-01-25T09:39:19.810Z,8.20
2018-01-25T09:41:46.391Z,8.20
2018-01-25T09:44:13.019Z,8.20
2018-01-25T09:46:39.647Z,8.20
2018-01-25T09:49:06.274Z,8.20
2018-01-25T09:51:33.256Z,8.30
2018-01-25T09:53:59.914Z,8.30
2018-01-25T09:56:26.953Z,8.30
2018-01-25T09:58:54.493Z,8.40
2018-01-25T10:01:21.139Z,8.40
2018-01-25T10:03:47.788Z,8.50
2018-01-25T10:06:15.142Z,8.50
2018-01-25T10:08:41.774Z,8.50
2018-01-25T10:11:08.334Z,8.50
2018-01-25T10:13:34.935Z,8.60
2018-01-25T10:16:01.963Z,8.60
2018-01-25T10:18:28.606Z,8.60
2018-01-25T10:20:55.226Z,8.60
2018-01-25T10:23:21.844Z,8.70
2018-01-25T10:25:48.474Z,8.70
2018-01-25T10:28:15.489Z,8.70
2018-01-25T10:30:42.124Z,8.70
2018-01-25T10:33:09.155Z,8.70
2018-01-25T10:35:35.751Z,8.80
2018-01-25T10:38:02.447Z,8.80
2018-01-25T10:40:31.157Z,8.80
2018-01-25T10:42:58.175Z,8.90
2018-01-25T10:45:24.836Z,8.90
2018-01-25T10:47:51.861Z,8.90
2018-01-25T10:50:18.493Z,8.90
2018-01-25T10:52:45.088Z,8.90
2018-01-25T10:55:11.667Z,9.00
2018-01-25T10:57:38.460Z,8.90
2018-01-25T11:02:57.103Z,9.00
2018-01-25T11:05:23.731Z,9.00
2018-01-25T11:07:50.407Z,9.00
2018-01-25T11:10:16.980Z,9.00
2018-01-25T11:12:43.654Z,9.00
2018-01-25T11:15:10.302Z,9.00
2018-01-25T11:17:37.310Z,9.10
2018-01-25T11:20:03.944Z,9.10
2018-01-25T11:22:30.622Z,9.10
2018-01-25T11:24:57.670Z,9.10
2018-01-25T11:27:24.671Z,9.10
2018-01-25T11:29:51.308Z,9.20
2018-01-25T11:32:17.927Z,9.20
2018-01-25T11:34:44.699Z,9.20
2018-01-25T11:37:11.309Z,9.20
2018-01-25T11:39:37.957Z,9.20
2018-01-25T11:42:04.560Z,9.20
2018-01-25T11:44:32.535Z,9.20
2018-01-25T11:46:59.514Z,9.30
2018-01-25T11:49:26.170Z,9.30
2018-01-25T11:51:52.859Z,9.30
2018-01-25T11:54:19.540Z,9.30
2018-01-25T11:56:46.166Z,9.30
2018-01-25T11:59:12.852Z,9.40
2018-01-25T12:01:39.599Z,9.40
2018-01-25T12:04:06.603Z,9.40
2018-01-25T12:06:33.219Z,9.40
2018-01-25T12:08:59.891Z,9.40
2018-01-25T12:11:26.479Z,9.50
2018-01-25T12:13:53.120Z,9.50
2018-01-25T12:16:33.995Z,9.50
2018-01-25T12:19:00.557Z,9.60
2018-01-25T12:21:27.155Z,9.60
2018-01-25T12:23:54.214Z,9.60
2018-01-25T12:26:21.646Z,9.60
2018-01-25T12:28:48.640Z,9.60
2018-01-25T12:31:15.297Z,9.60
2018-01-25T12:33:41.893Z,9.60
2018-01-25T12:36:08.528Z,9.70
2018-01-25T12:38:35.247Z,9.70
2018-01-25T12:41:14.357Z,9.80
2018-01-25T12:43:41.037Z,9.80
2018-01-25T12:46:07.631Z,9.80
2018-01-25T12:48:34.242Z,9.80
2018-01-25T12:51:00.916Z,9.90
2018-01-25T12:53:27.527Z,9.90
2018-01-25T12:55:54.129Z,9.90
2018-01-25T12:58:20.814Z,10.00
2018-01-25T13:00:47.489Z,10.00
2018-01-25T13:03:14.121Z,10.00
2018-01-25T13:05:46.758Z,10.00
2018-01-25T13:08:13.410Z,10.10
2018-01-25T13:10:40.087Z,10.10
2018-01-25T13:13:07.143Z,10.10
2018-01-25T13:15:34.159Z,10.10
2018-01-25T13:18:00.775Z,10.20
2018-01-25T13:20:27.366Z,10.20
2018-01-25T13:22:53.996Z,10.20
2018-01-25T13:25:20.992Z,10.20
2018-01-25T13:27:47.616Z,10.20
2018-01-25T13:30:14.246Z,10.20
2018-01-25T13:32:45.474Z,10.30
2018-01-25T13:38:04.595Z,10.20
2018-01-25T13:40:31.207Z,10.20
2018-01-25T13:42:57.828Z,10.20
2018-01-25T13:45:24.883Z,10.20
2018-01-25T13:47:51.463Z,10.20
2018-01-25T13:50:18.075Z,10.20
2018-01-25T13:52:45.689Z,10.20
2018-01-25T13:55:12.287Z,10.20
2018-01-25T13:57:38.895Z,10.10
2018-01-25T14:00:05.550Z,10.10
2018-01-25T14:02:32.161Z,10.10
2018-01-25T14:04:59.200Z,10.00
2018-01-25T14:07:26.345Z,10.10
2018-01-25T14:09:53.367Z,10.10
2018-01-25T14:12:19.973Z,10.10
2018-01-25T14:17:48.923Z,10.10
2018-01-25T14:20:15.638Z,10.10
2018-01-25T14:22:42.238Z,10.10
2018-01-25T14:25:08.887Z,10.10
2018-01-25T14:27:57.175Z,10.20
2018-01-25T14:30:23.758Z,10.20
2018-01-25T14:32:50.402Z,10.10
2018-01-25T14:35:17.319Z,10.10
2018-01-25T14:37:43.918Z,10.10
2018-01-25T14:40:10.515Z,10.10
2018-01-25T14:42:37.546Z,10.10
2018-01-25T14:45:04.605Z,10.10
2018-01-25T14:47:49.072Z,10.10
2018-01-25T14:50:15.696Z,10.10
2018-01-25T14:52:42.691Z,10.00
2018-01-25T14:55:09.350Z,10.00
2018-01-25T14:57:35.948Z,9.90
2018-01-25T15:00:02.611Z,9.90
2018-01-25T15:02:29.261Z,9.90
2018-01-25T15:04:55.854Z,9.90
2018-01-25T15:07:22.455Z,9.90
2018-01-25T15:09:49.579Z,9.90
2018-01-25T15:12:16.156Z,9.90
2018-01-25T15:14:43.150Z,9.80
2018-01-25T15:17:09.766Z,9.80
2018-01-25T15:19:36.379Z,9.80
2018-01-25T15:22:03.421Z,9.80
2018-01-25T15:24:36.247Z,9.80
2018-01-25T15:27:03.214Z,9.80
2018-01-25T15:29:29.861Z,9.80
2018-01-25T15:31:56.423Z,9.80
2018-01-25T15:34:23.735Z,9.80
2018-01-25T15:36:50.298Z,9.70
2018-01-25T15:39:26.695Z,9.70
2018-01-25T15:41:53.563Z,9.70
2018-01-25T15:44:36.940Z,9.70
2018-01-25T15:47:03.995Z,9.70
2018-01-25T15:49:30.598Z,9.60
2018-01-25T15:51:57.230Z,9.60
2018-01-25T15:54:23.843Z,9.50
2018-01-25T15:56:50.407Z,9.50
2018-01-25T15:59:17.062Z,9.50
2018-01-25T16:01:44.064Z,9.50
2018-01-25T16:04:10.703Z,9.50
2018-01-25T16:06:37.357Z,9.50
2018-01-25T16:09:04.500Z,9.50
2018-01-25T16:11:31.128Z,9.40
2018-01-25T16:13:57.739Z,9.40
2018-01-25T16:16:34.514Z,9.40
2018-01-25T16:19:01.539Z,9.40
2018-01-25T16:21:28.180Z,9.30
2018-01-25T16:23:54.805Z,9.30
2018-01-25T16:26:21.492Z,9.30
2018-01-25T16:28:48.516Z,9.30
2018-01-25T16:31:15.149Z,9.20
2018-01-25T16:34:00.817Z,9.20
2018-01-25T16:36:27.751Z,9.20
2018-01-25T16:38:54.384Z,9.20
2018-01-25T16:41:20.966Z,9.10
2018-01-25T16:43:48.051Z,9.10
2018-01-25T16:46:14.633Z,9.10
2018-01-25T16:48:41.211Z,9.10
2018-01-25T16:51:07.860Z,9.10
2018-01-25T16:53:34.444Z,9.10
2018-01-25T16:56:01.020Z,9.10
2018-01-25T16:58:27.660Z,9.00
2018-01-25T17:00:54.293Z,9.00
2018-01-25T17:03:21.280Z,9.00
2018-01-25T17:05:47.883Z,9.00
2018-01-25T17:08:14.934Z,9.00
2018-01-25T17:10:41.541Z,9.00
2018-01-25T17:13:08.208Z,9.00
2018-01-25T17:15:34.897Z,9.00
2018-01-25T17:18:05.479Z,9.00
2018-01-25T17:20:32.149Z,9.00
2018-01-25T17:22:58.831Z,9.00
2018-01-25T17:25:25.452Z,9.00
2018-01-25T17:28:04.917Z,9.00
2018-01-25T17:30:31.952Z,9.00
2018-01-25T17:32:59.000Z,9.00
2018-01-25T17:35:25.632Z,8.90
2018-01-25T17:37:56.302Z,8.90
2018-01-25T17:40:22.930Z,9.00
2018-01-25T17:42:50.983Z,8.90
2018-01-25T17:45:18.053Z,8.90
2018-01-25T17:47:44.708Z,8.90
2018-01-25T17:50:23.157Z,8.90
2018-01-25T17:52:56.975Z,8.90
2018-01-25T17:55:24.020Z,8.90
2018-01-25T17:57:50.631Z,8.90
2018-01-25T18:00:24.032Z,9.00
2018-01-25T18:02:50.729Z,8.90
2018-01-25T18:05:22.692Z,8.90
2018-01-25T18:07:49.767Z,8.90
2018-01-25T18:10:29.339Z,8.90
2018-01-25T18:13:01.557Z,8.90
2018-01-25T18:15:28.163Z,8.90
2018-01-25T18:17:59.888Z,8.80
2018-01-25T18:20:26.544Z,8.90
2018-01-25T18:22:53.145Z,9.00
2018-01-25T18:25:20.811Z,9.00
2018-01-25T18:27:47.500Z,9.00
2018-01-25T18:30:14.487Z,9.00
2018-01-25T18:32:46.987Z,9.00
2018-01-25T18:35:13.700Z,8.90
2018-01-25T18:37:40.315Z,8.90
2018-01-25T18:40:07.372Z,8.90
2018-01-25T18:42:34.403Z,8.80
2018-01-25T18:45:01.429Z,8.80
2018-01-25T18:47:28.106Z,8.80
2018-01-25T18:50:07.056Z,8.80
2018-01-25T18:52:33.674Z,8.70
2018-01-25T18:55:00.275Z,8.70
2018-01-25T18:57:27.004Z,8.70
2018-01-25T18:59:53.606Z,8.70
2018-01-25T19:02:20.266Z,8.70
2018-01-25T19:04:48.915Z,8.70
2018-01-25T19:07:15.534Z,8.60
2018-01-25T19:09:42.244Z,8.60
2018-01-25T19:12:08.947Z,8.60
2018-01-25T19:14:35.563Z,8.60
2018-01-25T19:17:02.980Z,8.60
2018-01-25T19:19:29.663Z,8.50
2018-01-25T19:21:56.271Z,8.50
2018-01-25T19:24:22.985Z,8.50
2018-01-25T19:26:49.998Z,8.50
2018-01-25T19:29:19.995Z,8.50
2018-01-25T19:31:47.076Z,8.50
2018-01-25T19:34:13.815Z,8.50
2018-01-25T19:36:40.434Z,8.50
2018-01-25T19:39:26.212Z,8.50
2018-01-25T19:41:52.871Z,8.40
2018-01-25T19:44:19.477Z,8.40
2018-01-25T19:46:46.527Z,8.40
2018-01-25T19:49:17.328Z,8.40
2018-01-25T19:51:44.242Z,8.40
2018-01-25T19:54:10.903Z,8.40
2018-01-25T19:56:37.519Z,8.40
2018-01-25T19:59:04.444Z,8.30
2018-01-25T20:01:31.016Z,8.30
2018-01-25T20:03:57.705Z,8.30
2018-01-25T20:06:25.120Z,8.30
2018-01-25T20:09:09.071Z,8.30
2018-01-25T20:11:35.774Z,8.20
2018-01-25T20:14:02.367Z,8.30
2018-01-25T20:16:29.392Z,8.20
2018-01-25T20:18:57.965Z,8.20
2018-01-25T20:21:24.682Z,8.20
2018-01-25T20:23:51.359Z,8.20
2018-01-25T20:26:18.390Z,8.20
2018-01-25T20:28:45.021Z,8.20
2018-01-25T20:31:14.892Z,8.20
2018-01-25T20:33:41.955Z,8.20
2018-01-25T20:36:08.644Z,8.20
2018-01-25T20:38:35.275Z,8.10
2018-01-25T20:41:02.049Z,8.10
2018-01-25T20:43:28.695Z,8.10
2018-01-25T20:45:55.709Z,8.10
2018-01-25T20:48:22.471Z,8.00
2018-01-25T20:50:49.498Z,8.00
2018-01-25T20:53:16.109Z,8.00
2018-01-25T20:55:42.775Z,8.00
2018-01-25T20:58:09.396Z,8.00
2018-01-25T21:00:36.993Z,8.00
2018-01-25T21:03:03.745Z,7.90
2018-01-25T21:05:30.811Z,7.90
2018-01-25T21:07:59.452Z,7.90
2018-01-25T21:10:26.479Z,7.90
2018-01-25T21:12:53.132Z,7.90
2018-01-25T21:15:19.865Z,7.90
2018-01-25T21:17:46.802Z,7.80
2018-01-25T21:20:16.494Z,7.80
2018-01-25T21:22:43.105Z,7.80
2018-01-25T21:25:10.218Z,7.80
2018-01-25T21:27:36.864Z,7.80
2018-01-25T21:30:03.569Z,7.80
2018-01-25T21:32:30.214Z,7.80
2018-01-25T21:34:56.848Z,7.80
2018-01-25T21:37:23.844Z,7.80
2018-01-25T21:39:50.874Z,7.80
2018-01-25T21:42:17.496Z,7.80
2018-01-25T21:44:44.171Z,7.80
2018-01-25T21:47:11.276Z,7.80
2018-01-25T21:52:32.080Z,7.70
2018-01-25T21:54:59.082Z,7.70
2018-01-25T21:57:25.762Z,7.80
2018-01-25T21:59:52.395Z,7.70
2018-01-25T22:02:19.079Z,7.70
2018-01-25T22:04:45.719Z,7.70
2018-01-25T22:07:12.359Z,7.70
2018-01-25T22:09:39.044Z,7.70
2018-01-25T22:12:05.633Z,7.70
2018-01-25T22:14:32.324Z,7.70
2018-01-25T22:16:58.983Z,7.70
2018-01-25T22:19:25.660Z,7.70
2018-01-25T22:21:52.323Z,7.70
2018-01-25T22:24:19.323Z,7.60
2018-01-25T22:26:45.943Z,7.60
2018-01-25T22:29:12.953Z,7.60
2018-01-25T22:31:39.639Z,7.60
2018-01-25T22:34:06.651Z,7.60
2018-01-25T22:36:33.367Z,7.60
2018-01-25T22:39:00.344Z,7.60
2018-01-25T22:41:27.002Z,7.60
2018-01-25T22:43:53.685Z,7.60
2018-01-25T22:46:20.299Z,7.60
2018-01-25T22:48:46.955Z,7.60
2018-01-25T22:51:13.564Z,7.60
2018-01-25T22:53:40.155Z,7.60
2018-01-25T22:56:07.260Z,7.60
2018-01-25T22:58:51.519Z,7.60
2018-01-25T23:01:19.454Z,7.60
2018-01-25T23:03:46.051Z,7.60
2018-01-25T23:06:13.116Z,7.60
2018-01-25T23:08:39.761Z,7.70
2018-01-25T23:11:06.331Z,7.60
2018-01-25T23:13:32.986Z,7.60
2018-01-25T23:16:00.374Z,7.60
2018-01-25T23:18:27.339Z,7.60
2018-01-25T23:20:53.944Z,7.60
2018-01-25T23:23:21.015Z,7.60
2018-01-25T23:25:47.666Z,7.60
2018-01-25T23:28:14.273Z,7.60
2018-01-25T23:30:41.294Z,7.60
2018-01-25T23:33:08.171Z,7.70
2018-01-25T23:35:35.184Z,7.70
2018-01-25T23:38:01.843Z,7.60
2018-01-25T23:40:28.531Z,7.60
2018-01-25T23:42:55.156Z,7.60
2018-01-25T23:45:21.767Z,7.60
2018-01-25T23:47:48.791Z,7.60
2018-01-25T23:50:15.794Z,7.60
2018-01-25T23:52:42.421Z,7.60
2018-01-25T23:55:09.086Z,7.60
2018-01-25T23:57:35.732Z,7.60
